Time;durP1;ratioP1;P1;durP2;ratioP2;P2;SDS_P1;SDS_P2;PMS_P1;PMS_P2;Temp;Humidity;BMP_temperature;BMP_pressure;BME280_temperature;BME280_humidity;BME280_pressure;Samples;Min_cycle;Max_cycle;Signal;HPM_P1;HPM_P2
2023/07/25 00:02:18;;;;;;;0.20;0.20;;;;;;;10.66;100.00;100567.94;5052328;28;20025;-49
2023/07/25 00:04:43;;;;;;;0.20;0.20;;;;;;;10.64;100.00;100573.88;5052467;28;20036;-51
2023/07/25 00:07:09;;;;;;;0.10;0.10;;;;;;;10.57;100.00;100578.03;5052705;28;20051;-49
2023/07/25 00:09:34;;;;;;;0.10;0.10;;;;;;;10.55;100.00;100569.41;5052088;28;20379;-49
2023/07/25 00:11:59;;;;;;;0.20;0.20;;;;;;;10.51;100.00;100573.59;5052384;28;20033;-49
2023/07/25 00:14:25;;;;;;;0.20;0.20;;;;;;;10.46;100.00;100575.19;5052416;28;20571;-50
2023/07/25 00:16:50;;;;;;;0.20;0.20;;;;;;;10.49;100.00;100567.50;5052289;28;20025;-49
2023/07/25 00:19:15;;;;;;;0.17;0.17;;;;;;;10.44;100.00;100576.84;5052449;28;20362;-49
2023/07/25 00:21:40;;;;;;;0.10;0.10;;;;;;;10.41;100.00;100576.78;5052466;28;20033;-48
2023/07/25 00:24:06;;;;;;;0.10;0.10;;;;;;;10.38;100.00;100571.56;5052005;28;20029;-50
2023/07/25 00:26:31;;;;;;;0.20;0.20;;;;;;;10.37;100.00;100564.66;5051978;28;20044;-51
2023/07/25 00:28:56;;;;;;;0.10;0.10;;;;;;;10.33;100.00;100562.78;5052566;28;20163;-48
2023/07/25 00:31:22;;;;;;;0.17;0.17;;;;;;;10.28;100.00;100566.97;5052040;28;20103;-45
2023/07/25 00:33:47;;;;;;;0.15;0.15;;;;;;;10.24;100.00;100565.09;5052165;28;20044;-49
2023/07/25 00:36:12;;;;;;;0.20;0.20;;;;;;;10.23;100.00;100558.22;5053621;28;20025;-49
2023/07/25 00:38:38;;;;;;;0.22;0.22;;;;;;;10.26;100.00;100563.47;5055669;28;20559;-49
2023/07/25 00:41:03;;;;;;;0.20;0.20;;;;;;;10.20;100.00;100562.47;5056298;28;20043;-48
2023/07/25 00:43:28;;;;;;;0.13;0.13;;;;;;;10.02;100.00;100561.97;5055550;28;20111;-48
2023/07/25 00:45:53;;;;;;;0.10;0.10;;;;;;;10.08;100.00;100563.84;5056364;28;20123;-50
2023/07/25 00:48:19;;;;;;;0.10;0.10;;;;;;;9.99;100.00;100569.59;5056533;28;20032;-50
2023/07/25 00:50:45;;;;;;;0.20;0.20;;;;;;;9.95;100.00;100565.22;5055571;28;20040;-48
2023/07/25 00:53:13;;;;;;;0.15;0.15;;;;;;;9.89;100.00;100571.06;5056079;28;20070;-47
2023/07/25 00:55:38;;;;;;;0.20;0.20;;;;;;;9.88;100.00;100565.03;5056216;28;20029;-50
2023/07/25 00:58:04;;;;;;;0.10;0.10;;;;;;;9.92;100.00;100565.13;5055927;28;20021;-49
2023/07/25 01:00:29;;;;;;;0.20;0.20;;;;;;;9.89;100.00;100564.22;5055803;28;20108;-49
2023/07/25 01:02:54;;;;;;;0.20;0.20;;;;;;;9.91;100.00;100558.22;5056176;28;20423;-47
2023/07/25 01:05:20;;;;;;;0.20;0.20;;;;;;;9.96;100.00;100564.38;5055443;28;20056;-47
2023/07/25 01:07:47;;;;;;;0.20;0.20;;;;;;;9.95;100.00;100563.50;5055531;28;20032;-50
2023/07/25 01:10:15;;;;;;;0.13;0.13;;;;;;;9.92;100.00;100559.97;5056135;28;20078;-48
2023/07/25 01:12:40;;;;;;;0.10;0.10;;;;;;;9.80;100.00;100566.53;5055217;28;20033;-50
2023/07/25 01:15:06;;;;;;;0.20;0.20;;;;;;;9.80;100.00;100556.22;5056102;28;20060;-47
2023/07/25 01:17:32;;;;;;;0.10;0.10;;;;;;;9.74;100.00;100556.06;5055616;28;20032;-46
2023/07/25 01:19:58;;;;;;;0.20;0.20;;;;;;;9.90;100.00;100552.19;5055320;28;20033;-50
2023/07/25 01:22:26;;;;;;;0.17;0.17;;;;;;;9.94;100.00;100560.88;5055232;28;20108;-50
2023/07/25 01:24:54;;;;;;;0.10;0.10;;;;;;;9.98;100.00;100561.00;5055974;28;20025;-48
2023/07/25 01:27:19;;;;;;;0.10;0.10;;;;;;;10.05;100.00;100562.06;5055360;28;20112;-48
2023/07/25 01:29:45;;;;;;;0.20;0.20;;;;;;;10.08;100.00;100553.53;5055253;28;20112;-50
2023/07/25 01:32:11;;;;;;;0.20;0.20;;;;;;;10.17;100.00;100558.94;5055813;28;20096;-49
2023/07/25 01:34:36;;;;;;;0.10;0.10;;;;;;;10.08;100.00;100546.66;5054741;28;20036;-48
2023/07/25 01:37:03;;;;;;;0.20;0.20;;;;;;;9.96;100.00;100554.94;5055205;28;20514;-49
2023/07/25 01:39:28;;;;;;;0.20;0.20;;;;;;;9.97;100.00;100548.13;5055202;28;20553;-48
2023/07/25 01:41:53;;;;;;;0.20;0.20;;;;;;;9.93;100.00;100535.97;5054932;28;20076;-49
2023/07/25 01:44:19;;;;;;;0.20;0.20;;;;;;;9.91;100.00;100542.78;5055333;28;20074;-48
2023/07/25 01:46:44;;;;;;;0.20;0.20;;;;;;;9.90;100.00;100541.91;5054401;28;20388;-47
2023/07/25 01:49:11;;;;;;;0.20;0.20;;;;;;;9.83;100.00;100548.59;5055084;28;20109;-49
2023/07/25 01:51:37;;;;;;;0.13;0.13;;;;;;;9.79;100.00;100543.31;5054864;28;20396;-48
2023/07/25 01:54:03;;;;;;;0.20;0.20;;;;;;;9.78;100.00;100539.88;5054621;28;20025;-50
2023/07/25 01:56:28;;;;;;;0.10;0.10;;;;;;;9.76;100.00;100536.38;5054794;28;20104;-50
2023/07/25 01:58:53;;;;;;;0.10;0.10;;;;;;;9.73;100.00;100538.84;5055059;28;20036;-49
2023/07/25 02:01:19;;;;;;;0.20;0.20;;;;;;;9.77;100.00;100532.09;5054591;28;20480;-50
2023/07/25 02:03:44;;;;;;;0.10;0.10;;;;;;;9.70;100.00;100538.78;5054556;28;20027;-49
2023/07/25 02:06:10;;;;;;;0.20;0.20;;;;;;;9.74;100.00;100524.31;5054902;28;20032;-49
2023/07/25 02:08:35;;;;;;;0.20;0.20;;;;;;;9.78;100.00;100528.72;5054264;28;20120;-51
2023/07/25 02:11:01;;;;;;;0.20;0.20;;;;;;;9.72;100.00;100526.81;5054722;28;20033;-50
2023/07/25 02:13:26;;;;;;;0.10;0.10;;;;;;;9.72;100.00;100519.09;5054664;28;20021;-48
2023/07/25 02:15:51;;;;;;;0.20;0.20;;;;;;;9.73;100.00;100518.28;5054303;28;20112;-49
2023/07/25 02:18:16;;;;;;;0.20;0.20;;;;;;;9.65;100.00;100527.50;5054522;28;20029;-48
2023/07/25 02:20:42;;;;;;;0.20;0.20;;;;;;;9.63;100.00;100527.47;5054349;28;20051;-49
2023/07/25 02:23:07;;;;;;;0.20;0.20;;;;;;;9.62;100.00;100530.84;5054369;28;20376;-50
2023/07/25 02:25:32;;;;;;;0.10;0.10;;;;;;;9.57;100.00;100524.69;5054031;28;20108;-48
2023/07/25 02:27:58;;;;;;;0.20;0.20;;;;;;;9.62;100.00;100529.97;5054699;28;20162;-49
2023/07/25 02:30:23;;;;;;;0.20;0.20;;;;;;;9.53;100.00;100526.31;5053737;28;20029;-48
2023/07/25 02:32:48;;;;;;;0.20;0.20;;;;;;;9.48;100.00;100530.44;5054289;28;20468;-48
2023/07/25 02:35:14;;;;;;;0.10;0.10;;;;;;;9.47;100.00;100530.41;5054379;28;20029;-49
2023/07/25 02:37:40;;;;;;;0.20;0.20;;;;;;;9.35;100.00;100524.06;5053666;28;20025;-48
2023/07/25 02:40:07;;;;;;;0.20;0.20;;;;;;;9.45;100.00;100522.66;5054027;28;20159;-50
2023/07/25 02:42:32;;;;;;;0.20;0.20;;;;;;;9.39;100.00;100518.19;5053704;28;20037;-49
2023/07/25 02:44:57;;;;;;;0.20;0.20;;;;;;;9.33;100.00;100517.16;5053746;28;20029;-48
2023/07/25 02:47:23;;;;;;;0.20;0.20;;;;;;;9.34;100.00;100516.31;5053627;28;20055;-47
2023/07/25 02:49:48;;;;;;;0.20;0.20;;;;;;;9.28;100.00;100519.56;5054174;28;20021;-49
2023/07/25 02:52:13;;;;;;;0.20;0.20;;;;;;;9.37;100.00;100524.13;5053459;28;20112;-50
2023/07/25 02:54:38;;;;;;;0.13;0.13;;;;;;;9.31;100.00;100526.50;5053650;28;20025;-46
2023/07/25 02:57:05;;;;;;;0.20;0.20;;;;;;;9.23;100.00;100526.28;5053580;28;20025;-48
2023/07/25 02:59:30;;;;;;;0.20;0.20;;;;;;;9.21;100.00;100526.22;5052956;28;20079;-50
2023/07/25 03:01:55;;;;;;;0.20;0.20;;;;;;;9.22;100.00;100520.28;5053957;28;20487;-49
2023/07/25 03:04:21;;;;;;;0.15;0.15;;;;;;;9.28;100.00;100526.41;5053448;28;20485;-49
2023/07/25 03:06:46;;;;;;;0.20;0.20;;;;;;;9.28;100.00;100529.84;5053260;28;20157;-50
2023/07/25 03:09:11;;;;;;;0.17;0.17;;;;;;;9.28;100.00;100524.72;5053996;28;20028;-49
2023/07/25 03:11:36;;;;;;;0.20;0.20;;;;;;;9.28;100.00;100524.72;5052871;28;20032;-49
2023/07/25 03:14:02;;;;;;;0.20;0.20;;;;;;;9.32;100.00;100526.56;5053385;28;20465;-48
2023/07/25 03:16:27;;;;;;;0.20;0.20;;;;;;;9.34;100.00;100519.75;5053337;28;20025;-48
2023/07/25 03:18:52;;;;;;;0.20;0.20;;;;;;;9.39;100.00;100528.47;5053058;28;20522;-49
2023/07/25 03:21:18;;;;;;;0.20;0.20;;;;;;;9.54;100.00;100533.22;5053547;28;20059;-51
2023/07/25 03:23:43;;;;;;;0.20;0.20;;;;;;;9.50;100.00;100525.34;5053329;28;20427;-50
2023/07/25 03:26:08;;;;;;;0.20;0.20;;;;;;;9.58;100.00;100523.88;5052952;28;20040;-49
2023/07/25 03:28:34;;;;;;;0.20;0.20;;;;;;;9.58;100.00;100523.00;5052938;28;20060;-49
2023/07/25 03:30:59;;;;;;;0.20;0.20;;;;;;;9.56;100.00;100521.25;5053236;28;20041;-48
2023/07/25 03:33:24;;;;;;;0.20;0.20;;;;;;;9.60;100.00;100511.06;5052381;28;20025;-49
2023/07/25 03:35:50;;;;;;;0.20;0.20;;;;;;;9.60;100.00;100511.06;5052983;28;20025;-50
2023/07/25 03:38:15;;;;;;;0.20;0.20;;;;;;;9.49;100.00;100524.47;5053216;28;20519;-48
2023/07/25 03:40:40;;;;;;;0.20;0.20;;;;;;;9.44;100.00;100514.88;5052321;28;20457;-48
2023/07/25 03:43:06;;;;;;;0.20;0.20;;;;;;;9.48;100.00;100515.00;5052741;28;20062;-50
2023/07/25 03:45:31;;;;;;;0.10;0.10;;;;;;;9.50;100.00;100515.94;5052944;28;20033;-49
2023/07/25 03:47:56;;;;;;;0.20;0.20;;;;;;;9.54;100.00;100504.91;5052505;28;20464;-50
2023/07/25 03:50:21;;;;;;;0.20;0.20;;;;;;;9.58;100.00;100510.13;5052666;28;20030;-49
2023/07/25 03:52:47;;;;;;;0.20;0.20;;;;;;;9.62;100.00;100506.81;5053102;28;20072;-50
2023/07/25 03:55:12;;;;;;;0.20;0.20;;;;;;;9.67;100.00;100515.53;5052619;28;20484;-50
2023/07/25 03:57:37;;;;;;;0.20;0.20;;;;;;;9.68;100.00;100522.41;5052478;28;20116;-47
2023/07/25 04:00:04;;;;;;;0.30;0.30;;;;;;;9.67;100.00;100516.41;5053324;28;20410;-51
2023/07/25 04:02:30;;;;;;;0.20;0.20;;;;;;;9.75;100.00;100511.47;5051738;28;20420;-49
2023/07/25 04:04:55;;;;;;;0.20;0.20;;;;;;;9.79;100.00;100521.03;5052929;28;20477;-45
2023/07/25 04:07:20;;;;;;;0.20;0.20;;;;;;;9.80;100.00;100514.16;5052380;28;20404;-49
2023/07/25 04:09:46;;;;;;;0.20;0.20;;;;;;;9.78;100.00;100516.69;5052279;28;20017;-46
2023/07/25 04:12:11;;;;;;;0.20;0.20;;;;;;;9.83;100.00;100522.00;5052214;28;20060;-49
2023/07/25 04:14:38;;;;;;;0.17;0.17;;;;;;;9.91;100.00;100524.78;5051897;28;20025;-46
2023/07/25 04:17:04;;;;;;;0.30;0.30;;;;;;;9.86;100.00;100515.22;5052490;28;20044;-50
2023/07/25 04:19:29;;;;;;;0.20;0.20;;;;;;;9.81;100.00;100511.66;5052179;28;20032;-49
2023/07/25 04:21:54;;;;;;;0.20;0.20;;;;;;;9.84;100.00;100521.16;5052272;28;20028;-49
2023/07/25 04:24:19;;;;;;;0.10;0.10;;;;;;;9.81;100.00;100514.22;5052695;28;20025;-49
2023/07/25 04:26:45;;;;;;;0.20;0.20;;;;;;;9.86;100.00;100525.53;5052434;28;20385;-46
2023/07/25 04:29:10;;;;;;;0.20;0.20;;;;;;;9.89;100.00;100520.44;5052130;28;20116;-49
2023/07/25 04:31:35;;;;;;;0.20;0.20;;;;;;;9.84;100.00;100516.88;5052106;28;20060;-50
2023/07/25 04:34:01;;;;;;;0.20;0.20;;;;;;;9.86;100.00;100525.53;5052550;28;20025;-48
2023/07/25 04:36:28;;;;;;;0.20;0.20;;;;;;;9.86;100.00;100525.53;5051942;28;20049;-48
2023/07/25 04:38:54;;;;;;;0.30;0.30;;;;;;;9.93;100.00;100523.97;5052608;28;20140;-46
2023/07/25 04:41:20;;;;;;;0.20;0.20;;;;;;;9.91;100.00;100517.03;5052416;28;20025;-47
2023/07/25 04:43:45;;;;;;;0.20;0.20;;;;;;;9.91;100.00;100529.91;5051761;28;20032;-49
2023/07/25 04:46:10;;;;;;;0.20;0.20;;;;;;;9.98;100.00;100521.50;5052224;28;20385;-47
2023/07/25 04:48:36;;;;;;;0.20;0.20;;;;;;;9.96;100.00;100526.63;5052125;28;20108;-48
2023/07/25 04:51:01;;;;;;;0.20;0.20;;;;;;;9.96;100.00;100531.78;5052171;28;20033;-46
2023/07/25 04:53:26;;;;;;;0.20;0.20;;;;;;;10.01;100.00;100527.63;5052186;28;20385;-47
2023/07/25 04:55:51;;;;;;;0.20;0.20;;;;;;;9.98;100.00;100524.09;5052665;28;20107;-49
2023/07/25 04:58:17;;;;;;;0.20;0.20;;;;;;;10.06;100.00;100530.31;5051988;28;20052;-46
2023/07/25 05:00:42;;;;;;;0.30;0.30;;;;;;;10.14;100.00;100522.81;5051905;28;20112;-45
2023/07/25 05:03:07;;;;;;;0.20;0.20;;;;;;;10.16;100.00;100531.44;5052318;28;20051;-46
2023/07/25 05:05:33;;;;;;;0.20;0.20;;;;;;;10.24;100.00;100526.47;5051498;28;20377;-55
2023/07/25 05:07:58;;;;;;;0.20;0.20;;;;;;;10.44;100.00;100525.31;5052243;28;20049;-44
2023/07/25 05:10:23;;;;;;;0.20;0.20;;;;;;;10.61;100.00;100520.56;5052001;28;20033;-47
2023/07/25 05:12:49;;;;;;;0.20;0.20;;;;;;;10.82;100.00;100521.91;5051753;28;20029;-45
2023/07/25 05:15:14;;;;;;;0.20;0.20;;;;;;;10.85;100.00;100528.00;5052091;28;20083;-49
2023/07/25 05:17:39;;;;;;;0.20;0.20;;;;;;;10.97;100.00;100521.41;5051330;28;20025;-49
2023/07/25 05:20:05;;;;;;;0.15;0.15;;;;;;;11.18;100.00;100521.00;5052129;28;20025;-48
2023/07/25 05:22:31;;;;;;;0.20;0.20;;;;;;;11.26;100.00;100528.91;5053198;28;20487;-47
2023/07/25 05:24:56;;;;;;;0.10;0.10;;;;;;;11.37;100.00;100527.44;5055168;28;20112;-47
2023/07/25 05:27:21;;;;;;;0.20;0.20;;;;;;;11.46;100.00;100527.63;5055600;28;20071;-46
2023/07/25 05:29:47;;;;;;;0.20;0.20;;;;;;;11.48;100.00;100525.94;5055571;28;20025;-47
2023/07/25 05:32:12;;;;;;;0.20;0.20;;;;;;;11.52;100.00;100532.91;5054995;28;20036;-48
2023/07/25 05:34:37;;;;;;;0.10;0.10;;;;;;;11.52;100.00;100527.75;5055243;28;20028;-46
2023/07/25 05:37:03;;;;;;;0.20;0.20;;;;;;;11.63;100.00;100527.97;5055425;28;20389;-49
2023/07/25 05:39:29;;;;;;;0.20;0.20;;;;;;;11.63;100.00;100524.50;5054689;28;20025;-48
2023/07/25 05:41:54;;;;;;;0.20;0.20;;;;;;;11.69;100.00;100534.97;5055343;28;20055;-44
2023/07/25 05:44:19;;;;;;;0.10;0.10;;;;;;;11.76;100.00;100531.69;5055602;28;20033;-46
2023/07/25 05:46:45;;;;;;;0.10;0.10;;;;;;;11.84;100.00;100545.59;5054566;28;20071;-50
2023/07/25 05:49:10;;;;;;;0.15;0.15;;;;;;;11.89;100.00;100547.41;5055085;28;20029;-46
2023/07/25 05:51:35;;;;;;;0.10;0.10;;;;;;;11.99;100.00;100546.75;5055121;28;20145;-49
2023/07/25 05:54:00;;;;;;;0.10;0.10;;;;;;;11.94;100.00;100550.94;5054737;28;20110;-50
2023/07/25 05:56:26;;;;;;;0.20;0.20;;;;;;;12.07;100.00;100552.06;5054765;28;20039;-48
2023/07/25 05:58:51;;;;;;;0.10;0.10;;;;;;;12.14;100.00;100549.63;5055212;28;20036;-47
2023/07/25 06:01:16;;;;;;;0.20;0.20;;;;;;;12.19;100.00;100553.16;5054474;28;20086;-46
2023/07/25 06:03:42;;;;;;;0.20;0.20;;;;;;;12.18;100.00;100559.16;5054786;28;20025;-45
2023/07/25 06:06:07;;;;;;;0.20;0.20;;;;;;;12.22;100.00;100551.50;5054958;28;20060;-44
2023/07/25 06:08:32;;;;;;;0.20;0.20;;;;;;;12.18;100.00;100554.00;5054239;28;20477;-49
2023/07/25 06:10:58;;;;;;;0.20;0.20;;;;;;;12.24;100.00;100550.69;5054711;28;20032;-47
2023/07/25 06:13:24;;;;;;;0.20;0.20;;;;;;;12.24;100.00;100544.63;5054611;28;20087;-47
2023/07/25 06:15:49;;;;;;;0.10;0.10;;;;;;;12.21;100.00;100544.59;5053955;28;20497;-46
2023/07/25 06:18:15;;;;;;;0.20;0.20;;;;;;;12.29;100.00;100548.16;5054772;28;20052;-48
2023/07/25 06:20:40;;;;;;;0.20;0.20;;;;;;;12.30;100.00;100544.75;5054547;28;20028;-48
2023/07/25 06:23:05;;;;;;;0.17;0.17;;;;;;;12.37;100.00;100545.72;5053870;28;20512;-47
2023/07/25 06:25:31;;;;;;;0.10;0.10;;;;;;;12.44;100.00;100539.81;5054400;28;20025;-47
2023/07/25 06:27:56;;;;;;;0.20;0.20;;;;;;;12.45;100.00;100545.00;5054479;28;20025;-50
2023/07/25 06:30:21;;;;;;;0.13;0.13;;;;;;;12.51;100.00;100539.94;5054004;28;20033;-46
2023/07/25 06:32:47;;;;;;;0.10;0.10;;;;;;;12.58;100.00;100545.22;5054262;28;20440;-46
2023/07/25 06:35:12;;;;;;;0.13;0.13;;;;;;;12.65;100.00;100557.38;5053197;28;20461;-45
2023/07/25 06:37:38;;;;;;;0.20;0.20;;;;;;;12.61;100.00;100571.13;5054036;28;20474;-48
2023/07/25 06:40:05;;;;;;;0.15;0.15;;;;;;;12.70;100.00;100565.22;5054477;28;20027;-45
2023/07/25 06:42:31;;;;;;;0.13;0.13;;;;;;;12.79;100.00;100566.22;5053254;28;20128;-48
2023/07/25 06:44:57;;;;;;;0.20;0.20;;;;;;;12.85;100.00;100566.34;5053883;28;20021;-49
2023/07/25 06:47:23;;;;;;;0.20;0.20;;;;;;;13.14;100.00;100570.22;5053761;28;20036;-46
2023/07/25 06:49:48;;;;;;;0.10;0.10;;;;;;;13.15;100.00;100575.41;5053852;28;20381;-49
2023/07/25 06:52:13;;;;;;;0.10;0.10;;;;;;;13.53;100.00;100570.78;5054085;28;20029;-47
2023/07/25 06:54:40;;;;;;;0.20;0.20;;;;;;;13.76;100.00;100559.00;5053902;28;20465;-48
2023/07/25 06:57:05;;;;;;;0.10;0.10;;;;;;;14.08;100.00;100555.88;5053505;28;20081;-48
2023/07/25 06:59:31;;;;;;;0.20;0.20;;;;;;;14.32;100.00;100550.06;5053358;28;20029;-45
2023/07/25 07:01:56;;;;;;;0.10;0.10;;;;;;;14.71;100.00;100553.03;5053812;28;20021;-45
2023/07/25 07:04:22;;;;;;;0.10;0.10;;;;;;;14.78;100.00;100559.13;5053539;28;20021;-46
2023/07/25 07:06:47;;;;;;;0.10;0.10;;;;;;;14.85;100.00;100565.22;5053493;28;20116;-49
2023/07/25 07:09:13;;;;;;;0.10;0.10;;;;;;;14.91;100.00;100565.28;5053947;28;20043;-46
2023/07/25 07:11:39;;;;;;;0.10;0.10;;;;;;;14.78;100.00;100565.22;5052899;28;20024;-49
2023/07/25 07:14:05;;;;;;;0.10;0.10;;;;;;;14.64;100.00;100564.19;5053484;28;20028;-45
2023/07/25 07:16:30;;;;;;;0.10;0.10;;;;;;;14.65;100.00;100568.53;5053274;28;20020;-47
2023/07/25 07:18:56;;;;;;;0.10;0.10;;;;;;;14.82;100.00;100572.16;5053074;28;20029;-46
2023/07/25 07:21:21;;;;;;;0.10;0.10;;;;;;;14.93;100.00;100574.81;5053768;28;20023;-46
2023/07/25 07:23:46;;;;;;;0.20;0.20;;;;;;;15.19;100.00;100578.44;5053495;28;20017;-47
2023/07/25 07:26:11;;;;;;;0.10;0.10;;;;;;;15.24;100.00;100575.00;5052762;28;20021;-46
2023/07/25 07:28:37;;;;;;;0.10;0.10;;;;;;;15.42;100.00;100584.63;5053156;28;20045;-46
2023/07/25 07:31:02;;;;;;;0.10;0.10;;;;;;;15.76;100.00;100586.53;5053235;28;20112;-47
2023/07/25 07:33:29;;;;;;;0.10;0.10;;;;;;;16.22;100.00;100584.09;5052170;28;20128;-45
2023/07/25 07:35:55;;;;;;;0.00;0.00;;;;;;;16.47;100.00;100584.13;5053381;28;20024;-47
2023/07/25 07:38:20;;;;;;;0.10;0.10;;;;;;;16.51;100.00;100585.88;5052842;28;20017;-45
2023/07/25 07:40:45;;;;;;;0.10;0.10;;;;;;;16.38;100.00;100584.13;5052780;28;20029;-45
2023/07/25 07:43:10;;;;;;;0.10;0.10;;;;;;;16.29;100.00;100583.25;5053015;28;20051;-49
2023/07/25 07:45:36;;;;;;;0.10;0.10;;;;;;;16.14;97.34;100585.84;5052007;28;20033;-47
2023/07/25 07:48:01;;;;;;;0.10;0.10;;;;;;;15.96;96.96;100591.84;5053010;28;20154;-46
2023/07/25 07:50:28;;;;;;;0.10;0.10;;;;;;;15.89;98.67;100595.28;5052623;28;20493;-46
2023/07/25 07:52:54;;;;;;;0.10;0.10;;;;;;;15.79;98.57;100596.94;5052612;28;20025;-45
2023/07/25 07:55:19;;;;;;;0.10;0.10;;;;;;;15.67;97.47;100589.94;5052964;28;20020;-49
2023/07/25 07:57:46;;;;;;;0.10;0.10;;;;;;;15.54;96.19;100598.56;5052744;28;20025;-47
2023/07/25 08:00:14;;;;;;;0.10;0.10;;;;;;;15.46;98.78;100599.38;5052416;28;20066;-45
2023/07/25 08:02:40;;;;;;;0.10;0.10;;;;;;;15.43;97.94;100607.16;5052266;28;20384;-44
2023/07/25 08:05:06;;;;;;;0.10;0.10;;;;;;;15.48;96.40;100610.66;5052681;28;20449;-51
2023/07/25 08:07:32;;;;;;;0.10;0.10;;;;;;;15.55;94.74;100605.50;5051882;28;20033;-51
2023/07/25 08:09:57;;;;;;;0.10;0.10;;;;;;;15.66;96.07;100609.03;5052638;28;20035;-50
2023/07/25 08:12:23;;;;;;;0.10;0.10;;;;;;;15.75;94.81;100614.25;5052754;28;20428;-45
2023/07/25 08:14:48;;;;;;;0.10;0.10;;;;;;;15.94;94.46;100619.53;5052163;28;20024;-47
2023/07/25 08:17:14;;;;;;;0.00;0.00;;;;;;;16.16;95.67;100622.22;5052587;28;20083;-47
2023/07/25 08:19:40;;;;;;;0.10;0.10;;;;;;;16.25;95.03;100615.31;5052239;28;20039;-47
2023/07/25 08:22:05;;;;;;;0.10;0.10;;;;;;;16.52;96.26;100612.78;5051982;28;20469;-45
2023/07/25 08:24:34;;;;;;;0.10;0.10;;;;;;;16.49;93.12;100616.22;5052407;28;20021;-45
2023/07/25 08:27:00;;;;;;;0.10;0.10;;;;;;;16.62;95.33;100614.50;5052731;28;20066;-49
2023/07/25 08:29:26;;;;;;;0.10;0.10;;;;;;;16.56;88.18;100615.34;5051523;28;20032;-50
2023/07/25 08:31:51;;;;;;;0.10;0.10;;;;;;;16.52;89.02;100624.03;5052746;28;20040;-47
2023/07/25 08:34:16;;;;;;;0.10;0.10;;;;;;;16.60;85.40;100621.44;5052820;28;20385;-48
2023/07/25 08:36:42;;;;;;;0.10;0.10;;;;;;;16.71;85.46;100630.13;5051529;28;20079;-46
2023/07/25 08:39:07;;;;;;;0.10;0.10;;;;;;;16.89;85.30;100624.06;5052529;28;20064;-46
2023/07/25 08:41:37;;;;;;;0.10;0.10;;;;;;;17.04;85.83;100630.16;5051982;28;20021;-45
2023/07/25 08:44:04;;;;;;;0.00;0.00;;;;;;;17.04;82.27;100632.75;5052245;28;20021;-51
2023/07/25 08:46:32;;;;;;;0.10;0.10;;;;;;;17.01;84.05;100631.03;5052126;28;20021;-49
2023/07/25 08:49:02;;;;;;;0.00;0.00;;;;;;;16.88;82.16;100637.09;5051965;28;20063;-46
2023/07/25 08:51:28;;;;;;;0.10;0.10;;;;;;;16.74;79.69;100640.53;5051884;28;20112;-50
2023/07/25 08:54:02;;;;;;;0.03;0.03;;;;;;;16.70;80.96;100643.16;5052234;28;20079;-48
2023/07/25 08:56:27;;;;;;;0.10;0.10;;;;;;;16.87;83.87;100643.16;5051475;28;20021;-47
2023/07/25 08:58:54;;;;;;;0.10;0.10;;;;;;;17.16;80.67;100642.28;5056055;28;20013;-51
2023/07/25 09:01:21;;;;;;;0.10;0.10;;;;;;;17.37;80.74;100647.47;5056478;28;20052;-46
2023/07/25 09:03:47;;;;;;;0.10;0.10;;;;;;;17.49;77.69;100651.81;5055462;28;20025;-45
2023/07/25 09:06:13;;;;;;;0.10;0.10;;;;;;;17.71;73.34;100652.59;5056007;28;20035;-46
2023/07/25 09:08:39;;;;;;;0.10;0.10;;;;;;;17.72;74.24;100638.72;5055851;28;20100;-45
2023/07/25 09:11:06;;;;;;;0.10;0.10;;;;;;;18.01;75.67;100652.53;5055181;28;20060;-46
2023/07/25 09:13:32;;;;;;;0.10;0.10;;;;;;;18.20;73.04;100654.19;5055824;28;20032;-50
2023/07/25 09:15:57;;;;;;;0.10;0.10;;;;;;;18.55;75.99;100647.91;5055941;28;20025;-46
2023/07/25 09:18:23;;;;;;;0.10;0.10;;;;;;;18.68;75.50;100646.09;5054917;28;20044;-45
2023/07/25 09:20:49;;;;;;;0.00;0.00;;;;;;;18.75;73.09;100646.91;5055853;28;20113;-49
2023/07/25 09:23:21;;;;;;;0.00;0.00;;;;;;;18.62;72.18;100655.69;5055822;28;20121;-50
2023/07/25 09:25:49;;;;;;;0.00;0.00;;;;;;;18.58;71.07;100649.63;5054579;28;20468;-46
2023/07/25 09:28:15;;;;;;;0.00;0.00;;;;;;;18.51;71.36;100654.00;5056103;28;20033;-50
2023/07/25 09:30:48;;;;;;;0.08;0.08;;;;;;;18.57;76.65;100650.50;5055449;28;20354;-48
2023/07/25 09:33:24;;;;;;;0.10;0.10;;;;;;;18.44;73.82;100644.50;5054791;28;20377;-45
2023/07/25 09:35:50;;;;;;;0.00;0.00;;;;;;;18.58;73.70;100647.03;5055804;28;20040;-50
2023/07/25 09:38:15;;;;;;;0.00;0.00;;;;;;;19.01;75.08;100653.69;5054941;28;20039;-45
2023/07/25 09:40:40;;;;;;;0.00;0.00;;;;;;;19.35;72.45;100656.00;5054893;28;20112;-51
2023/07/25 09:43:06;;;;;;;0.00;0.00;;;;;;;19.20;64.95;100662.25;5055300;28;20092;-48
2023/07/25 09:45:36;;;;;;;0.00;0.00;;;;;;;18.92;65.39;100662.47;5054640;28;20021;-45
2023/07/25 09:48:02;;;;;;;0.00;0.00;;;;;;;19.28;67.00;100656.94;5055355;28;20028;-47
2023/07/25 09:50:33;;;;;;;0.03;0.03;;;;;;;19.69;61.81;100661.75;5055146;28;20032;-48
2023/07/25 09:53:01;;;;;;;0.10;0.10;;;;;;;19.64;60.41;100658.31;5054643;28;20455;-51
2023/07/25 09:55:26;;;;;;;0.00;0.00;;;;;;;19.28;63.45;100660.41;5054675;28;20377;-50
2023/07/25 09:57:52;;;;;;;0.00;0.00;;;;;;;18.90;65.25;100666.81;5055326;28;20025;-50
2023/07/25 10:00:18;;;;;;;0.10;0.10;;;;;;;18.42;67.71;100662.78;5054433;28;20032;-45
2023/07/25 10:02:43;;;;;;;0.00;0.00;;;;;;;18.08;66.71;100662.94;5054912;28;20036;-46
2023/07/25 10:05:09;;;;;;;0.00;0.00;;;;;;;17.91;70.10;100660.38;5055031;28;20037;-45
2023/07/25 10:07:36;;;;;;;0.10;0.10;;;;;;;18.63;70.15;100660.91;5054187;28;20024;-46
2023/07/25 10:10:03;;;;;;;0.10;0.10;;;;;;;19.23;66.91;100663.06;5053714;28;20024;-46
2023/07/25 10:12:29;;;;;;;0.00;0.00;;;;;;;19.62;62.50;100659.22;5054656;28;20032;-45
2023/07/25 10:14:56;;;;;;;0.10;0.10;;;;;;;20.11;61.94;100661.25;5054228;28;20029;-46
2023/07/25 10:17:23;;;;;;;0.00;0.00;;;;;;;20.53;55.82;100655.47;5054808;28;20389;-47
2023/07/25 10:19:54;;;;;;;0.10;0.10;;;;;;;21.26;57.72;100657.78;5054698;28;20041;-49
2023/07/25 10:22:35;;;;;;;0.10;0.10;;;;;;;21.82;56.12;100654.16;5053897;28;20534;-47
2023/07/25 10:25:01;;;;;;;0.00;0.00;;;;;;;22.40;49.92;100659.09;5054780;28;20021;-49
2023/07/25 10:27:26;;;;;;;0.00;0.00;;;;;;;23.21;48.53;100658.91;5053784;28;20497;-51
2023/07/25 10:29:51;;;;;;;0.00;0.00;;;;;;;23.29;48.23;100662.22;5054309;28;20021;-50
2023/07/25 10:32:41;;;;;;;0.00;0.00;;;;;;;23.27;48.17;100663.16;5054377;28;20108;-48
2023/07/25 10:35:07;;;;;;;0.00;0.00;;;;;;;23.98;46.69;100655.97;5053865;28;20504;-51
2023/07/25 10:37:38;;;;;;;0.00;0.00;;;;;;;24.27;42.20;100657.72;5054149;28;20107;-48
2023/07/25 10:40:08;;;;;;;0.00;0.00;;;;;;;24.29;40.75;100661.16;5054630;28;20029;-50
2023/07/25 10:42:45;;;;;;;0.00;0.00;;;;;;;24.41;41.10;100666.97;5053214;28;20075;-48
2023/07/25 10:45:29;;;;;;;0.00;0.00;;;;;;;25.18;42.13;100660.97;5054464;28;20432;-47
2023/07/25 10:47:59;;;;;;;0.00;0.00;;;;;;;25.71;39.09;100667.97;5054379;28;20029;-50
2023/07/25 10:50:49;;;;;;;0.00;0.00;;;;;;;24.99;38.92;100662.47;5053058;28;20021;-49
2023/07/25 10:53:20;;;;;;;0.00;0.00;;;;;;;24.73;39.58;100660.69;5054070;28;20541;-52
2023/07/25 10:56:03;;;;;;;0.00;0.00;;;;;;;24.51;44.07;100668.41;5053442;28;20051;-51
2023/07/25 10:58:33;;;;;;;0.00;0.00;;;;;;;24.39;40.56;100660.88;5053584;28;20024;-49
2023/07/25 11:00:59;;;;;;;0.00;0.00;;;;;;;24.86;39.67;100655.88;5054007;28;20025;-46
2023/07/25 11:03:29;;;;;;;0.00;0.00;;;;;;;24.04;41.03;100657.53;5052678;28;20017;-50
2023/07/25 11:06:07;;;;;;;0.00;0.00;;;;;;;22.97;45.34;100655.09;5054094;28;20139;-46
2023/07/25 11:08:37;;;;;;;0.00;0.00;;;;;;;23.94;44.20;100647.28;5053506;28;20439;-47
2023/07/25 11:11:05;;;;;;;0.00;0.00;;;;;;;24.74;39.70;100645.75;5052965;28;20029;-46
2023/07/25 11:13:36;;;;;;;0.00;0.00;;;;;;;24.97;38.61;100659.03;5053582;28;20143;-50
2023/07/25 11:16:02;;;;;;;0.00;0.00;;;;;;;24.85;36.29;100659.44;5053676;28;20036;-47
2023/07/25 11:18:27;;;;;;;0.00;0.00;;;;;;;25.14;36.18;100649.69;5052721;28;20029;-49